»·PEaware :: QXE2215 KBOI-KSEA

QXE2215 :: KBOI-KSEA

FLIGHT INFORMATION

Flight Status: Arrived
Operator:
Horizon Air
More flights by this operator :: More flights under this callsign
Pilot: Joshua V. (18904)
Aircraft: DEHAVILLAND DASH 8 400
(DH8D)
More flights by this aircraft type
Origin: KBOI Boise Air Terminal/Gowen
United States
Destination: KSEA Seattle-Tacoma Intl
United States
More flights between these airports :: More routes between these airports
Route: +BOI3 OLAAH PREIS PDT CHINS4
File this flight plan on PilotEdge
Remarks:
Altitude:
(Current/Filed)
20,000ft
Speed:
(Current/Filed)
310kts
Departed: 06-Oct-20 04:02 PM
Arrived: 06-Oct-20 05:14 PM
Distance/Time
Traveled:
346nm/1:12
Distance/Time
To Go:
Arrived

Flight Plot

Page will automatically refresh every two minutes.

Flight plan parsing failed; only flown route is shown


Map Options




Map Legend


Flown Route
Filed Route
Departure Airport
Arrival Airport
Navaid (VOR, NDB)
Fix

Horizontal Profiles

Position Reports

Time Latitude Longitude Heading Altitude Ground
Speed
06-Oct-20 15:30 43.567805 -116.219517 225 2878ft 0kts
06-Oct-20 15:31 43.567805 -116.219517 225 2878ft 0kts
06-Oct-20 15:32 43.567805 -116.219517 225 2878ft 0kts
06-Oct-20 15:33 43.567805 -116.219518 225 2878ft 0kts
06-Oct-20 15:34 43.567805 -116.219518 225 2878ft 0kts
06-Oct-20 15:35 43.567805 -116.219518 225 2878ft 0kts
06-Oct-20 15:36 43.567805 -116.219518 225 2878ft 0kts
06-Oct-20 15:37 43.567805 -116.219518 225 2878ft 0kts
06-Oct-20 15:38 43.567805 -116.219518 225 2878ft 0kts
06-Oct-20 15:39 43.567805 -116.219518 225 2878ft 0kts
06-Oct-20 15:40 43.567805 -116.219518 225 2878ft 0kts
06-Oct-20 15:41 43.567805 -116.219518 225 2878ft 0kts
06-Oct-20 15:42 43.567805 -116.219518 225 2878ft 0kts
06-Oct-20 15:43 43.567805 -116.219518 225 2878ft 0kts
06-Oct-20 15:44 43.567805 -116.219518 225 2878ft 0kts
06-Oct-20 15:45 43.567805 -116.219518 225 2878ft 0kts
06-Oct-20 15:46 43.567805 -116.219518 225 2878ft 0kts
06-Oct-20 15:47 43.567805 -116.219518 225 2878ft 0kts
06-Oct-20 15:48 43.567805 -116.219518 225 2878ft 0kts
06-Oct-20 15:49 43.567805 -116.219518 225 2878ft 0kts
06-Oct-20 15:50 43.567805 -116.219518 225 2878ft 0kts
06-Oct-20 15:51 43.567805 -116.219518 225 2878ft 0kts
06-Oct-20 15:52 43.567805 -116.219518 225 2878ft 0kts
06-Oct-20 15:53 43.567945 -116.219955 22 2878ft 6kts
06-Oct-20 15:54 43.567552 -116.217572 133 2878ft 7kts
06-Oct-20 15:55 43.565162 -116.216348 177 2878ft 8kts
06-Oct-20 15:56 43.562865 -116.211504 115 2878ft 19kts
06-Oct-20 15:57 43.562080 -116.208893 118 2878ft 11kts
06-Oct-20 15:58 43.560777 -116.205253 112 2878ft 17kts
06-Oct-20 15:59 43.560170 -116.203533 117 2878ft 2kts
06-Oct-20 16:00 43.559003 -116.204112 294 2878ft 26kts
06-Oct-20 16:01 43.573634 -116.248969 290 4374ft 159kts
06-Oct-20 16:02 43.587035 -116.310967 294 7480ft 169kts
06-Oct-20 16:03 43.629198 -116.349487 330 10265ft 200kts
06-Oct-20 16:04 43.680649 -116.387591 330 12984ft 215kts
06-Oct-20 16:06 43.734590 -116.427657 330 15264ft 228kts
06-Oct-20 16:07 43.794000 -116.471989 330 16367ft 266kts
06-Oct-20 16:08 43.859968 -116.521133 330 17551ft 272kts
06-Oct-20 16:09 43.927149 -116.571339 330 18631ft 276kts
06-Oct-20 16:10 43.995588 -116.621361 329 19434ft 283kts
06-Oct-20 16:11 44.065164 -116.673604 326 20028ft 288kts
06-Oct-20 16:12 44.136614 -116.731503 322 20124ft 305kts
06-Oct-20 16:13 44.202821 -116.807297 310 20126ft 315kts
06-Oct-20 16:14 44.265391 -116.895010 312 20127ft 323kts
06-Oct-20 16:15 44.329833 -116.983295 312 20129ft 327kts
06-Oct-20 16:16 44.394896 -117.073152 311 20135ft 330kts
06-Oct-20 16:17 44.460308 -117.163789 311 20138ft 332kts
06-Oct-20 16:18 44.525695 -117.254658 311 20142ft 331kts
06-Oct-20 16:19 44.590833 -117.345491 312 20142ft 332kts
06-Oct-20 16:20 44.656270 -117.437072 311 20142ft 333kts
06-Oct-20 16:21 44.721441 -117.528552 311 20141ft 332kts
06-Oct-20 16:21 44.775948 -117.605376 311 20139ft 333kts
06-Oct-20 16:23 44.852292 -117.713221 311 20138ft 333kts
06-Oct-20 16:24 44.917511 -117.805749 311 20138ft 333kts
06-Oct-20 16:24 44.971884 -117.883110 311 20135ft 333kts
06-Oct-20 16:26 45.047888 -117.991620 311 20130ft 333kts
06-Oct-20 16:27 45.112998 -118.084908 311 20129ft 334kts
06-Oct-20 16:28 45.177953 -118.178361 311 20126ft 334kts
06-Oct-20 16:28 45.232076 -118.256428 311 20128ft 333kts
06-Oct-20 16:29 45.297084 -118.350529 311 20135ft 333kts
06-Oct-20 16:30 45.361575 -118.444132 311 20148ft 330kts
06-Oct-20 16:31 45.425780 -118.537743 311 20147ft 331kts
06-Oct-20 16:32 45.490085 -118.631731 311 20140ft 332kts
06-Oct-20 16:33 45.554516 -118.726329 311 20102ft 334kts
06-Oct-20 16:34 45.619246 -118.821618 310 20058ft 334kts
06-Oct-20 16:35 45.683625 -118.916768 310 20038ft 334kts
06-Oct-20 16:36 45.745568 -119.015891 306 20030ft 333kts
06-Oct-20 16:37 45.798146 -119.122685 308 20015ft 334kts
06-Oct-20 16:38 45.859192 -119.222857 307 20001ft 334kts
06-Oct-20 16:39 45.919838 -119.323726 307 19999ft 334kts
06-Oct-20 16:40 45.980035 -119.424220 307 19998ft 333kts
06-Oct-20 16:41 46.040488 -119.525454 307 19995ft 333kts
06-Oct-20 16:42 46.098632 -119.623187 307 19995ft 333kts
06-Oct-20 16:43 46.158368 -119.724272 307 19994ft 333kts
06-Oct-20 16:44 46.218303 -119.826261 306 19998ft 331kts
06-Oct-20 16:45 46.276833 -119.928626 306 19997ft 332kts
06-Oct-20 16:46 46.335720 -120.031360 306 20008ft 329kts
06-Oct-20 16:47 46.394003 -120.133372 306 20002ft 328kts
06-Oct-20 16:48 46.452034 -120.235386 306 20011ft 330kts
06-Oct-20 16:49 46.510306 -120.338395 306 20014ft 331kts
06-Oct-20 16:50 46.568443 -120.441398 305 20017ft 331kts
06-Oct-20 16:51 46.621513 -120.550509 300 20018ft 330kts
06-Oct-20 16:52 46.673098 -120.660079 301 20021ft 330kts
06-Oct-20 16:53 46.725427 -120.769933 301 20029ft 329kts
06-Oct-20 16:54 46.777198 -120.879322 301 20040ft 328kts
06-Oct-20 16:55 46.827601 -120.986204 301 18780ft 306kts
06-Oct-20 16:56 46.876207 -121.089556 301 17386ft 310kts
06-Oct-20 16:57 46.923588 -121.191314 301 15660ft 304kts
06-Oct-20 16:58 46.970370 -121.291680 301 13932ft 294kts
06-Oct-20 16:59 47.015505 -121.388886 301 12268ft 283kts
06-Oct-20 17:00 47.059470 -121.484224 302 10622ft 282kts
06-Oct-20 17:01 47.102668 -121.577767 303 10075ft 268kts
06-Oct-20 17:02 47.143895 -121.667079 302 10054ft 267kts
06-Oct-20 17:03 47.180491 -121.746919 302 10044ft 270kts
06-Oct-20 17:04 47.222594 -121.839013 303 10025ft 271kts
06-Oct-20 17:05 47.258613 -121.918102 302 10011ft 272kts
06-Oct-20 17:06 47.271586 -122.026956 276 8824ft 278kts
06-Oct-20 17:07 47.277361 -122.137938 275 7324ft 264kts
06-Oct-20 17:08 47.283274 -122.236844 293 6036ft 205kts
06-Oct-20 17:09 47.318069 -122.288922 316 4141ft 171kts
06-Oct-20 17:10 47.357773 -122.309096 358 2229ft 136kts
06-Oct-20 17:11 47.392696 -122.308423 358 1236ft 117kts
06-Oct-20 17:12 47.425980 -122.308160 359 577ft 115kts
06-Oct-20 17:13 47.443408 -122.307666 78 440ft 4kts

Navigation Log

Ident Type
Flight plan parsing failed, navigation log unavailable